Terminal Aerodrome Forecast
Issued by NWS

Home | Current Version | Previous Version | Text Only | Print | Product List | Glossary Off
Versions: 1 2 3 4 5 6 7 8 9 10 11 12 13 14

000
FTUS43 KPAH 220400 AAA
TAFCGI
TAF AMD
KCGI 220451Z 2205/2224 14004KT P6SM SCT025 OVC060
     FM220700 18009KT P6SM FEW025 OVC050
     FM221500 19012G21KT P6SM SCT030 BKN050=

USA.gov is the U.S. government's official web portal to all federal, state and local government web resources and services.